Skip Navigation LinksHome page > Weather > Current weather Skip Navigation Links

Current Weather

Ndjamena, Chad

For information only: do not use for flight planning or navigation.
Latest weather
Observation time Friday, October 24, 2014 2:00 PM WAT
Local time Friday, October 24, 2014 3:39 PM WAT
Flight conditions Visual Meteorological Conditions
Winds
Wind direction West-Northwest (300°)
Winds variable from 210° to 360°
Wind speed 5 mph
Visibility 6.2 mi.
Sky condition
Ceiling unlimited
Cloud layer few clouds 4,000 ft.
Temperature 99°F
Dewpoint 77°F
Altimeter 29.80 in.Hg
Derived measurements
Relative humidity 51%
Heat index 115°F
Density altitude 3345 ft.
Remarks
No significant changes expected in the next two hours.
METAR FTTJ 241300Z 30004KT 210V360 9999 FEW040 37/25 Q1009 NOSIG

Settings

Location code

InnerDrive.Weather 4.0.5399.0 Release CLR 4.0.30319.34014
Copyright ©2014 Inner Drive Technology. All rights reserved. Portions Copyright ©1986-2014 David Braverman.

Find weather

Site navigation


Skip Navigation Links

Place info

Page info

PayPal - The safer, easier way to pay online!

Return home.

Copyright ©2014 Inner Drive Technology. Purveyors of fine, hand-crafted computer software. Page printed 2014-10-24T14:39:31 UTC.